Aérodrome :
LOGIN :

S'inscrire | Disclaimer

   EN    FR    IT 

 










Légende :    VFR   VFR Marginal   IFR   IFR Intensif   IFR Très Intensif
Visi : 
Plafond : 
>= 8 km
>= 3000ft
5 à 8 km
1000 à 3000 ft
1500m à 5 km
500 à 1000 ft
800 à 1500m
200 à 500 ft
< 800m
< 200 ft
Symboles :   Orages  Brouillard  Fortes neiges  Fortes précipitations  Vent > 20 kt
SIGMETs :   Divers  Orages  Givrage  Turbulence  Onde Orograph.  Cendres Volcan.







- Altitude de l'aérodrome : 436 ft
- Code IATA : ANG
- Voir les cartes d'approche


LFBU - Angoulême Brie Champniers

DERNIER METAR :
  • 232230Z AUTO 05005KT CAVOK 13/12 Q1017

METARs EXPIRÉS :
  • 232200Z AUTO 03006KT CAVOK 13/12 Q1017
  • 232130Z AUTO VRB02KT CAVOK 13/12 Q1017
  • 232100Z AUTO 03006KT CAVOK 13/12 Q1017 NOSIG
  • 232030Z AUTO 08003KT CAVOK 14/12 Q1017 NOSIG
  • 232000Z AUTO 04004KT CAVOK 14/13 Q1016 NOSIG
  • 231930Z AUTO 10003KT 050V140 CAVOK 15/13 Q1016 NOSIG

TAF AMD TAF LFBU
Valide du 23 à 18h jusqu'au 24 à 18h UTC


231750Z 2318/2418 VRB03KT CAVOK
PROB40
TEMPO 2318/2320 3000 TSRA BKN040CB
PROB30
TEMPO 2403/2405 4000 BR NSC
BECMG 2407/2409 16010KT
TEMPO 2411/2418 4000 SHRA BKN040TCU
PROB30
TEMPO 2412/2415 16010G25KT 2000 TSRA BKN030CB
Pas de NOTAMs connus pour ce terrain.



MET'MAP, la Météo Aéronautique d'un coup d'oeil ! - Copyright ORBIFLY Décembre 2007 - Disclaimer

ORBIFLY MET'MAP TEAM :

Programmation & Développement : Alexandra Zaïnal
Conception & Développement : Baudouin d'Aumeries
Co-Programmation & Développement : Marc-Olivier Méhu
Soutien technique & logistique : Manuel Goepfert

Contact : metmap@orbifly.com




SOURCES & CREDITS :

   NOAA